ASP1000 CYKA-CYQZ
Flight info
| Callsign | ASP1000 |
|---|---|
| Flight time | 0h 33m |
| Altitude | 26000 |
| Route | OLONA2 OLONA DCT YWL |
| Aircraft | B461/M-SDFGIRWY/LB1 |
Departure
| Time | 2026-04-28 23:59 |
|---|---|
| Airport | Kamloops John Moose Fulton Field Regional Airport (CYKA) |
Arrival
| Time | 2026-04-29 00:33 |
|---|---|
| Airport | Quesnel Airport (CYQZ) |
| Time | Latitude | Longitude | Altitude | Speed | Heading |
|---|---|---|---|---|---|
| 2026-04-28 23:48 | 50.70437 | -120.44240 | 1161 ft | 0 kts | 15° |
| 2026-04-28 23:56 | 50.70439 | -120.44237 | 1161 ft | 0 kts | 44° |
| 2026-04-28 23:56 | 50.70433 | -120.44222 | 1161 ft | 5 kts | 143° |
| 2026-04-28 23:57 | 50.70388 | -120.44182 | 1161 ft | 8 kts | 137° |
| 2026-04-28 23:57 | 50.70369 | -120.44092 | 1161 ft | 10 kts | 102° |
| 2026-04-28 23:57 | 50.70347 | -120.43936 | 1161 ft | 18 kts | 102° |
| 2026-04-28 23:57 | 50.70312 | -120.43703 | 1161 ft | 22 kts | 104° |
| 2026-04-28 23:58 | 50.70276 | -120.43466 | 1161 ft | 22 kts | 102° |
| 2026-04-28 23:58 | 50.70216 | -120.43250 | 1161 ft | 21 kts | 150° |
| 2026-04-28 23:58 | 50.70081 | -120.43187 | 1161 ft | 12 kts | 197° |
| 2026-04-28 23:58 | 50.70081 | -120.43363 | 1161 ft | 40 kts | 284° |
| 2026-04-28 23:59 | 50.70203 | -120.44189 | 1160 ft | 110 kts | 282° |
| 2026-04-28 23:59 | 50.70422 | -120.45598 | 1267 ft | 146 kts | 288° |
| 2026-04-28 23:59 | 50.70670 | -120.47186 | 1702 ft | 153 kts | 289° |
| 2026-04-28 23:59 | 50.70903 | -120.48856 | 2178 ft | 163 kts | 285° |
| 2026-04-29 00:00 | 50.71246 | -120.50586 | 2669 ft | 170 kts | 290° |
| 2026-04-29 00:00 | 50.71491 | -120.52432 | 3161 ft | 179 kts | 281° |
| 2026-04-29 00:00 | 50.71756 | -120.54410 | 3637 ft | 190 kts | 285° |
| 2026-04-29 00:00 | 50.72069 | -120.56523 | 4115 ft | 207 kts | 284° |
| 2026-04-29 00:01 | 50.72405 | -120.58803 | 4609 ft | 225 kts | 283° |
| 2026-04-29 00:01 | 50.72771 | -120.61292 | 5107 ft | 242 kts | 283° |
| 2026-04-29 00:01 | 50.73159 | -120.63937 | 5609 ft | 258 kts | 283° |
| 2026-04-29 00:01 | 50.73574 | -120.66773 | 6107 ft | 274 kts | 283° |
| 2026-04-29 00:02 | 50.74011 | -120.69770 | 6605 ft | 288 kts | 283° |
| 2026-04-29 00:02 | 50.74465 | -120.72889 | 7095 ft | 300 kts | 283° |
| 2026-04-29 00:02 | 50.74706 | -120.76239 | 7605 ft | 312 kts | 272° |
| 2026-04-29 00:02 | 50.74825 | -120.79623 | 8309 ft | 314 kts | 275° |
| 2026-04-29 00:03 | 50.74964 | -120.83065 | 9027 ft | 316 kts | 275° |
| 2026-04-29 00:03 | 50.75182 | -120.86466 | 9658 ft | 318 kts | 283° |
| 2026-04-29 00:03 | 50.75876 | -120.89796 | 10270 ft | 320 kts | 296° |
| 2026-04-29 00:03 | 50.77034 | -120.92728 | 10928 ft | 320 kts | 310° |
| 2026-04-29 00:04 | 50.78623 | -120.95203 | 11526 ft | 322 kts | 323° |
| 2026-04-29 00:04 | 50.80538 | -120.97083 | 12126 ft | 324 kts | 331° |
| 2026-04-29 00:04 | 50.82511 | -120.98727 | 12651 ft | 328 kts | 333° |
| 2026-04-29 00:04 | 50.84586 | -121.00313 | 13217 ft | 330 kts | 334° |
| 2026-04-29 00:05 | 50.86667 | -121.01788 | 13767 ft | 332 kts | 336° |
| 2026-04-29 00:05 | 50.88768 | -121.03344 | 14266 ft | 335 kts | 333° |
| 2026-04-29 00:05 | 50.90836 | -121.05021 | 14746 ft | 337 kts | 332° |
| 2026-04-29 00:05 | 50.92925 | -121.06719 | 15215 ft | 339 kts | 332° |
| 2026-04-29 00:06 | 50.95027 | -121.08428 | 15671 ft | 342 kts | 332° |
| 2026-04-29 00:06 | 50.97111 | -121.10125 | 16143 ft | 343 kts | 332° |
| 2026-04-29 00:06 | 50.99237 | -121.11858 | 16592 ft | 344 kts | 332° |
| 2026-04-29 00:06 | 51.01358 | -121.13591 | 16985 ft | 347 kts | 332° |
| 2026-04-29 00:07 | 51.03496 | -121.15340 | 17395 ft | 348 kts | 332° |
| 2026-04-29 00:07 | 51.05651 | -121.17104 | 17783 ft | 349 kts | 333° |
| 2026-04-29 00:07 | 51.07810 | -121.18874 | 18172 ft | 350 kts | 333° |
| 2026-04-29 00:07 | 51.09980 | -121.20654 | 18530 ft | 352 kts | 333° |
| 2026-04-29 00:08 | 51.12138 | -121.22427 | 18884 ft | 353 kts | 333° |
| 2026-04-29 00:08 | 51.14270 | -121.24181 | 19234 ft | 355 kts | 333° |
| 2026-04-29 00:08 | 51.16533 | -121.26045 | 19611 ft | 355 kts | 333° |
| 2026-04-29 00:08 | 51.18731 | -121.27859 | 19951 ft | 355 kts | 333° |
| 2026-04-29 00:09 | 51.20914 | -121.29662 | 20310 ft | 356 kts | 333° |
| 2026-04-29 00:09 | 51.23113 | -121.31477 | 20670 ft | 356 kts | 333° |
| 2026-04-29 00:09 | 51.25314 | -121.33298 | 21043 ft | 356 kts | 333° |
| 2026-04-29 00:09 | 51.27483 | -121.35095 | 21403 ft | 355 kts | 333° |
| 2026-04-29 00:10 | 51.29675 | -121.36913 | 21768 ft | 355 kts | 333° |
| 2026-04-29 00:10 | 51.31866 | -121.38731 | 22129 ft | 355 kts | 333° |
| 2026-04-29 00:10 | 51.34049 | -121.40545 | 22491 ft | 354 kts | 334° |
| 2026-04-29 00:10 | 51.36203 | -121.42339 | 22841 ft | 353 kts | 333° |
| 2026-04-29 00:11 | 51.38390 | -121.44160 | 23201 ft | 352 kts | 333° |
| 2026-04-29 00:11 | 51.40561 | -121.45969 | 23560 ft | 351 kts | 333° |
| 2026-04-29 00:11 | 51.44892 | -121.49586 | 23982 ft | 358 kts | 333° |
| 2026-04-29 00:12 | 51.47119 | -121.51450 | 23996 ft | 366 kts | 333° |
| 2026-04-29 00:12 | 51.49399 | -121.53360 | 23993 ft | 368 kts | 333° |
| 2026-04-29 00:12 | 51.51663 | -121.55263 | 23993 ft | 369 kts | 333° |
| 2026-04-29 00:12 | 51.53918 | -121.57159 | 23998 ft | 370 kts | 333° |
| 2026-04-29 00:13 | 51.56206 | -121.59084 | 23996 ft | 371 kts | 333° |
| 2026-04-29 00:13 | 51.58510 | -121.61025 | 24000 ft | 372 kts | 333° |
| 2026-04-29 00:13 | 51.60796 | -121.62952 | 23997 ft | 373 kts | 334° |
| 2026-04-29 00:13 | 51.63082 | -121.64882 | 23999 ft | 374 kts | 333° |
| 2026-04-29 00:14 | 51.65400 | -121.66840 | 23996 ft | 374 kts | 333° |
| 2026-04-29 00:14 | 51.67696 | -121.68781 | 23788 ft | 375 kts | 333° |
| 2026-04-29 00:14 | 51.69964 | -121.70701 | 23468 ft | 363 kts | 333° |
| 2026-04-29 00:14 | 51.72147 | -121.72552 | 23155 ft | 352 kts | 333° |
| 2026-04-29 00:15 | 51.74310 | -121.74387 | 22843 ft | 350 kts | 333° |
| 2026-04-29 00:15 | 51.76445 | -121.76201 | 22537 ft | 354 kts | 333° |
| 2026-04-29 00:15 | 51.78657 | -121.78082 | 22229 ft | 361 kts | 333° |
| 2026-04-29 00:15 | 51.80882 | -121.79975 | 21907 ft | 368 kts | 333° |
| 2026-04-29 00:16 | 51.83138 | -121.81896 | 21496 ft | 362 kts | 333° |
| 2026-04-29 00:16 | 51.85323 | -121.83759 | 21102 ft | 355 kts | 333° |
| 2026-04-29 00:16 | 51.87490 | -121.85609 | 20713 ft | 348 kts | 333° |
| 2026-04-29 00:16 | 51.89615 | -121.87425 | 20330 ft | 343 kts | 333° |
| 2026-04-29 00:17 | 51.91701 | -121.89209 | 19939 ft | 339 kts | 333° |
| 2026-04-29 00:17 | 51.93758 | -121.90971 | 19573 ft | 340 kts | 333° |
| 2026-04-29 00:17 | 51.95868 | -121.92781 | 19204 ft | 342 kts | 332° |
| 2026-04-29 00:17 | 51.97961 | -121.94579 | 18839 ft | 345 kts | 332° |
| 2026-04-29 00:18 | 52.00079 | -121.96400 | 18442 ft | 348 kts | 332° |
| 2026-04-29 00:18 | 52.02238 | -121.98257 | 18060 ft | 349 kts | 332° |
| 2026-04-29 00:18 | 52.04362 | -122.00086 | 17695 ft | 350 kts | 332° |
| 2026-04-29 00:18 | 52.06522 | -122.01949 | 17316 ft | 351 kts | 332° |
| 2026-04-29 00:19 | 52.08658 | -122.03793 | 16914 ft | 350 kts | 332° |
| 2026-04-29 00:19 | 52.10794 | -122.05638 | 16543 ft | 343 kts | 332° |
| 2026-04-29 00:19 | 52.12884 | -122.07446 | 16178 ft | 338 kts | 332° |
| 2026-04-29 00:19 | 52.14945 | -122.09232 | 15809 ft | 332 kts | 332° |
| 2026-04-29 00:20 | 52.16891 | -122.10920 | 15473 ft | 329 kts | 332° |
| 2026-04-29 00:20 | 52.18901 | -122.12667 | 15128 ft | 330 kts | 332° |
| 2026-04-29 00:20 | 52.20770 | -122.14294 | 14834 ft | 330 kts | 332° |
| 2026-04-29 00:20 | 52.22808 | -122.16069 | 14497 ft | 330 kts | 332° |
| 2026-04-29 00:21 | 52.24943 | -122.17262 | 14158 ft | 331 kts | 352° |
| 2026-04-29 00:21 | 52.27226 | -122.17654 | 13817 ft | 331 kts | 352° |
| 2026-04-29 00:21 | 52.29526 | -122.18106 | 13453 ft | 332 kts | 352° |
| 2026-04-29 00:21 | 52.31794 | -122.18559 | 13097 ft | 331 kts | 352° |
| 2026-04-29 00:22 | 52.34080 | -122.19016 | 12771 ft | 328 kts | 352° |
| 2026-04-29 00:22 | 52.36342 | -122.19470 | 12439 ft | 326 kts | 352° |
| 2026-04-29 00:22 | 52.38559 | -122.19916 | 12100 ft | 324 kts | 352° |
| 2026-04-29 00:22 | 52.40776 | -122.20364 | 11767 ft | 322 kts | 352° |
| 2026-04-29 00:23 | 52.43000 | -122.20815 | 11430 ft | 320 kts | 352° |
| 2026-04-29 00:23 | 52.45170 | -122.21255 | 11090 ft | 318 kts | 352° |
| 2026-04-29 00:23 | 52.47322 | -122.21690 | 10919 ft | 298 kts | 352° |
| 2026-04-29 00:23 | 52.49315 | -122.22092 | 10731 ft | 280 kts | 352° |
| 2026-04-29 00:24 | 52.51189 | -122.22473 | 10489 ft | 266 kts | 352° |
| 2026-04-29 00:24 | 52.52978 | -122.22839 | 10331 ft | 254 kts | 352° |
| 2026-04-29 00:24 | 52.54716 | -122.23197 | 10184 ft | 253 kts | 352° |
| 2026-04-29 00:24 | 52.56466 | -122.23559 | 9959 ft | 256 kts | 352° |
| 2026-04-29 00:25 | 52.58252 | -122.23927 | 9660 ft | 262 kts | 352° |
| 2026-04-29 00:25 | 52.60071 | -122.24302 | 9359 ft | 267 kts | 352° |
| 2026-04-29 00:25 | 52.61934 | -122.24686 | 9046 ft | 272 kts | 352° |
| 2026-04-29 00:25 | 52.63788 | -122.25069 | 8801 ft | 267 kts | 352° |
| 2026-04-29 00:26 | 52.65587 | -122.25440 | 8584 ft | 257 kts | 352° |
| 2026-04-29 00:26 | 52.67329 | -122.25800 | 8371 ft | 251 kts | 352° |
| 2026-04-29 00:26 | 52.69093 | -122.26166 | 8158 ft | 257 kts | 353° |
| 2026-04-29 00:26 | 52.70848 | -122.26528 | 7961 ft | 256 kts | 353° |
| 2026-04-29 00:27 | 52.72603 | -122.26894 | 7751 ft | 254 kts | 352° |
| 2026-04-29 00:27 | 52.74355 | -122.27260 | 7539 ft | 252 kts | 352° |
| 2026-04-29 00:27 | 52.76098 | -122.27623 | 7340 ft | 251 kts | 353° |
| 2026-04-29 00:27 | 52.77825 | -122.27983 | 7137 ft | 251 kts | 353° |
| 2026-04-29 00:28 | 52.79516 | -122.28586 | 6863 ft | 252 kts | 335° |
| 2026-04-29 00:28 | 52.81000 | -122.30105 | 6559 ft | 251 kts | 330° |
| 2026-04-29 00:28 | 52.82509 | -122.31547 | 6249 ft | 251 kts | 331° |
| 2026-04-29 00:28 | 52.84015 | -122.32993 | 5937 ft | 252 kts | 330° |
| 2026-04-29 00:29 | 52.85521 | -122.34444 | 5625 ft | 252 kts | 330° |
| 2026-04-29 00:29 | 52.87044 | -122.35915 | 5309 ft | 252 kts | 330° |
| 2026-04-29 00:29 | 52.88538 | -122.37359 | 4959 ft | 249 kts | 330° |
| 2026-04-29 00:29 | 52.90022 | -122.38795 | 4612 ft | 241 kts | 331° |
| 2026-04-29 00:30 | 52.91401 | -122.40133 | 4293 ft | 223 kts | 331° |
| 2026-04-29 00:30 | 52.92260 | -122.40966 | 4100 ft | 212 kts | 331° |
| 2026-04-29 00:30 | 52.93841 | -122.42502 | 3750 ft | 181 kts | 331° |
| 2026-04-29 00:30 | 52.94852 | -122.43484 | 3506 ft | 159 kts | 331° |
| 2026-04-29 00:31 | 52.95735 | -122.44343 | 3287 ft | 138 kts | 332° |
| 2026-04-29 00:31 | 52.96530 | -122.45116 | 3093 ft | 130 kts | 331° |
| 2026-04-29 00:31 | 52.97317 | -122.45881 | 2912 ft | 130 kts | 331° |
| 2026-04-29 00:31 | 52.98087 | -122.46629 | 2732 ft | 129 kts | 332° |
| 2026-04-29 00:32 | 52.98858 | -122.47378 | 2547 ft | 127 kts | 330° |
| 2026-04-29 00:32 | 52.99627 | -122.48126 | 2366 ft | 129 kts | 330° |
| 2026-04-29 00:32 | 53.00393 | -122.48872 | 2190 ft | 129 kts | 330° |
| 2026-04-29 00:32 | 53.01168 | -122.49624 | 1984 ft | 128 kts | 330° |
| 2026-04-29 00:33 | 53.01921 | -122.50369 | 1821 ft | 125 kts | 329° |
| 2026-04-29 00:33 | 53.02580 | -122.51014 | 1803 ft | 87 kts | 332° |
| 2026-04-29 00:33 | 53.02852 | -122.51291 | 1805 ft | 12 kts | 300° |
| 2026-04-29 00:33 | 53.02852 | -122.51273 | 1805 ft | 10 kts | 150° |
| 2026-04-29 00:34 | 53.02774 | -122.51197 | 1804 ft | 16 kts | 151° |
| 2026-04-29 00:34 | 53.02659 | -122.51086 | 1804 ft | 22 kts | 149° |
| 2026-04-29 00:34 | 53.02544 | -122.50946 | 1803 ft | 15 kts | 95° |
| 2026-04-29 00:34 | 53.02590 | -122.50785 | 1803 ft | 15 kts | 60° |
| 2026-04-29 00:35 | 53.02604 | -122.50681 | 1803 ft | 4 kts | 180° |
| 2026-04-29 00:35 | 53.02600 | -122.50691 | 1803 ft | 0 kts | 272° |